createdAt,value
2023-05-05T00:00:21.804Z,30.94
2023-05-05T00:01:21.773Z,30.94
2023-05-05T00:02:21.809Z,30.97
2023-05-05T00:03:21.961Z,30.98
2023-05-05T00:04:22.105Z,30.97
2023-05-05T00:05:21.835Z,30.91
2023-05-05T00:06:21.847Z,30.96
2023-05-05T00:07:21.819Z,30.89
2023-05-05T00:08:21.838Z,30.95
2023-05-05T00:09:21.814Z,30.90
2023-05-05T00:10:21.826Z,30.91
2023-05-05T00:11:21.803Z,30.88
2023-05-05T00:12:21.791Z,30.83
2023-05-05T00:13:21.834Z,30.80
2023-05-05T00:14:21.796Z,30.84
2023-05-05T00:15:21.795Z,30.77
2023-05-05T00:16:21.827Z,30.81
2023-05-05T00:17:21.751Z,30.81
2023-05-05T00:18:21.773Z,30.78
2023-05-05T00:19:21.769Z,30.77
2023-05-05T00:20:21.772Z,30.77
2023-05-05T00:21:21.755Z,30.84
2023-05-05T00:22:21.733Z,30.73
2023-05-05T00:23:21.751Z,30.82
2023-05-05T00:24:21.723Z,30.75
2023-05-05T00:25:21.768Z,30.77
2023-05-05T00:26:21.754Z,30.78
2023-05-05T00:27:21.749Z,30.82
2023-05-05T00:28:21.779Z,30.81
2023-05-05T00:29:21.776Z,30.81
2023-05-05T00:30:21.782Z,30.84
2023-05-05T00:31:21.828Z,30.90
2023-05-05T00:32:21.838Z,30.81
2023-05-05T00:33:21.798Z,30.89
2023-05-05T00:34:21.815Z,30.83
2023-05-05T00:35:21.808Z,30.81
2023-05-05T00:36:21.836Z,30.80
2023-05-05T00:37:21.823Z,30.88
2023-05-05T00:38:21.831Z,30.89
2023-05-05T00:39:21.804Z,30.95
2023-05-05T00:40:21.829Z,30.88
2023-05-05T00:41:21.817Z,30.89
2023-05-05T00:42:21.797Z,30.95
2023-05-05T00:43:21.776Z,30.91
2023-05-05T00:44:21.770Z,30.95
2023-05-05T00:45:21.804Z,30.96
2023-05-05T00:46:21.829Z,30.91
2023-05-05T00:47:21.766Z,30.84
2023-05-05T00:48:21.795Z,30.91
2023-05-05T00:49:21.802Z,30.89
2023-05-05T00:50:21.739Z,30.92
2023-05-05T00:51:21.778Z,30.88
2023-05-05T00:52:21.743Z,30.87
2023-05-05T00:53:21.757Z,30.88
2023-05-05T00:54:21.763Z,30.92
2023-05-05T00:55:21.779Z,30.89
2023-05-05T00:56:21.746Z,30.85
2023-05-05T00:57:21.757Z,30.82
2023-05-05T00:58:21.728Z,30.81
2023-05-05T00:59:21.717Z,30.85
2023-05-05T01:00:21.695Z,30.88
2023-05-05T01:01:21.784Z,30.88
2023-05-05T01:02:21.713Z,30.85
2023-05-05T01:03:21.730Z,30.88
2023-05-05T01:04:21.708Z,30.89
2023-05-05T01:05:21.704Z,31.00
2023-05-05T01:06:21.681Z,30.92
2023-05-05T01:07:21.668Z,30.91
2023-05-05T01:08:21.661Z,30.88
2023-05-05T01:09:21.632Z,30.91
2023-05-05T01:10:21.850Z,30.89
2023-05-05T01:11:21.639Z,30.91
2023-05-05T01:12:21.627Z,30.98
2023-05-05T01:13:21.637Z,30.94
2023-05-05T01:14:21.675Z,30.85
2023-05-05T01:15:21.627Z,30.94
2023-05-05T01:16:21.675Z,30.89
2023-05-05T01:17:21.596Z,30.96
2023-05-05T01:18:21.605Z,30.99
2023-05-05T01:19:21.622Z,30.98
2023-05-05T01:20:21.614Z,30.88
2023-05-05T01:21:21.608Z,30.85
2023-05-05T01:22:21.622Z,30.86
2023-05-05T01:23:21.599Z,30.82
2023-05-05T01:24:21.627Z,30.82
2023-05-05T01:25:21.650Z,30.91
2023-05-05T01:26:21.620Z,30.89
2023-05-05T01:27:21.620Z,30.86
2023-05-05T01:28:21.615Z,30.83
2023-05-05T01:29:21.600Z,30.82
2023-05-05T01:30:21.581Z,30.85
2023-05-05T01:31:21.659Z,30.80
2023-05-05T01:32:21.602Z,30.80
2023-05-05T01:33:21.593Z,30.89
2023-05-05T01:34:21.610Z,30.82
2023-05-05T01:35:21.585Z,30.85
2023-05-05T01:36:21.596Z,30.85
2023-05-05T01:37:21.565Z,30.83
2023-05-05T01:38:21.558Z,30.85
2023-05-05T01:39:21.590Z,30.79
2023-05-05T01:40:21.549Z,30.78
2023-05-05T01:41:21.572Z,30.81
2023-05-05T01:42:21.555Z,30.82
2023-05-05T01:43:21.541Z,30.75
2023-05-05T01:44:21.550Z,30.80
2023-05-05T01:45:21.544Z,30.76
2023-05-05T01:46:21.654Z,30.78
2023-05-05T01:47:21.513Z,30.79
2023-05-05T01:48:21.545Z,30.78
2023-05-05T01:49:21.547Z,30.76
2023-05-05T01:50:21.500Z,30.76
2023-05-05T01:51:21.505Z,30.80
2023-05-05T01:52:21.533Z,30.75
2023-05-05T01:53:21.518Z,30.82
2023-05-05T01:54:21.506Z,30.77
2023-05-05T01:55:21.538Z,30.86
2023-05-05T01:56:21.513Z,30.79
2023-05-05T01:57:21.521Z,30.80
2023-05-05T01:58:21.516Z,30.79
2023-05-05T01:59:21.520Z,30.84
2023-05-05T02:00:21.521Z,30.85
2023-05-05T02:01:21.615Z,30.86
2023-05-05T02:02:21.523Z,30.86
2023-05-05T02:03:21.574Z,30.86
2023-05-05T02:04:21.525Z,30.86
2023-05-05T02:05:21.528Z,30.79
2023-05-05T02:06:21.533Z,30.78
2023-05-05T02:07:21.487Z,30.80
2023-05-05T02:08:21.526Z,30.82
2023-05-05T02:09:21.515Z,30.82
2023-05-05T02:10:21.512Z,30.80
2023-05-05T02:11:21.477Z,30.84
2023-05-05T02:12:21.483Z,30.80
2023-05-05T02:13:21.555Z,30.77
2023-05-05T02:14:21.479Z,30.79
2023-05-05T02:15:21.473Z,30.83
2023-05-05T02:16:21.498Z,30.86
2023-05-05T02:17:21.486Z,30.82
2023-05-05T02:18:21.490Z,30.80
2023-05-05T02:19:21.513Z,30.84
2023-05-05T02:20:21.514Z,30.84
2023-05-05T02:21:21.512Z,30.77
2023-05-05T02:22:21.536Z,30.84
2023-05-05T02:23:21.521Z,30.74
2023-05-05T02:24:21.531Z,30.83
2023-05-05T02:25:21.494Z,30.77
2023-05-05T02:26:21.542Z,30.80
2023-05-05T02:27:21.557Z,30.83
2023-05-05T02:28:21.570Z,30.82
2023-05-05T02:29:21.566Z,30.79
2023-05-05T02:30:21.524Z,30.80
2023-05-05T02:31:21.580Z,30.80
2023-05-05T02:32:21.619Z,30.77
2023-05-05T02:33:21.536Z,30.77
2023-05-05T02:34:21.536Z,30.79
2023-05-05T02:35:21.545Z,30.74
2023-05-05T02:36:21.577Z,30.80
2023-05-05T02:37:21.551Z,30.83
2023-05-05T02:38:21.588Z,30.80
2023-05-05T02:39:22.143Z,30.80
2023-05-05T02:40:21.580Z,30.79
2023-05-05T02:41:21.574Z,30.82
2023-05-05T02:42:21.584Z,30.77
2023-05-05T02:43:21.618Z,30.70
2023-05-05T02:44:21.559Z,30.80
2023-05-05T02:45:21.572Z,30.69
2023-05-05T02:46:21.665Z,30.69
2023-05-05T02:47:21.592Z,30.76
2023-05-05T02:48:21.599Z,30.70
2023-05-05T02:49:21.597Z,30.70
2023-05-05T02:50:21.579Z,30.73
2023-05-05T02:51:21.584Z,30.77
2023-05-05T02:52:21.615Z,30.80
2023-05-05T02:53:21.565Z,30.76
2023-05-05T02:54:21.568Z,30.74
2023-05-05T02:55:21.566Z,30.79
2023-05-05T02:56:21.601Z,30.81
2023-05-05T02:57:21.594Z,30.79
2023-05-05T02:58:22.146Z,30.76
2023-05-05T02:59:21.602Z,30.74
2023-05-05T03:00:21.584Z,30.70
2023-05-05T03:01:21.596Z,30.72
2023-05-05T03:02:21.618Z,30.70
2023-05-05T03:03:21.753Z,30.70
2023-05-05T03:04:21.603Z,30.66
2023-05-05T03:05:21.583Z,30.69
2023-05-05T03:06:21.555Z,30.66
2023-05-05T03:07:21.557Z,30.65
2023-05-05T03:08:21.576Z,30.63
2023-05-05T03:09:21.555Z,30.56
2023-05-05T03:10:21.578Z,30.62
2023-05-05T03:11:21.534Z,30.65
2023-05-05T03:12:21.556Z,30.61
2023-05-05T03:13:21.554Z,30.62
2023-05-05T03:14:21.553Z,30.63
2023-05-05T03:15:21.543Z,30.56
2023-05-05T03:16:21.609Z,30.54
2023-05-05T03:17:21.641Z,30.58
2023-05-05T03:18:21.590Z,30.51
2023-05-05T03:19:21.602Z,30.62
2023-05-05T03:20:21.613Z,30.55
2023-05-05T03:21:21.628Z,30.57
2023-05-05T03:22:21.587Z,30.56
2023-05-05T03:23:21.624Z,30.57
2023-05-05T03:24:21.591Z,30.49
2023-05-05T03:25:21.651Z,30.46
2023-05-05T03:26:21.627Z,30.47
2023-05-05T03:27:21.651Z,30.47
2023-05-05T03:28:21.674Z,30.44
2023-05-05T03:29:21.650Z,30.48
2023-05-05T03:30:21.674Z,30.45
2023-05-05T03:31:21.704Z,30.41
2023-05-05T03:32:21.688Z,30.43
2023-05-05T03:33:21.699Z,30.41
2023-05-05T03:34:21.714Z,30.41
2023-05-05T03:35:21.663Z,30.38
2023-05-05T03:36:21.674Z,30.40
2023-05-05T03:37:21.683Z,30.42
2023-05-05T03:38:21.736Z,30.35
2023-05-05T03:39:21.681Z,30.32
2023-05-05T03:40:29.611Z,30.31
2023-05-05T03:41:22.710Z,30.30
2023-05-05T03:42:21.698Z,30.30
2023-05-05T03:43:21.684Z,30.27
2023-05-05T03:44:21.686Z,30.24
2023-05-05T03:45:21.668Z,30.27
2023-05-05T03:46:21.742Z,30.24
2023-05-05T03:47:21.687Z,30.27
2023-05-05T03:48:21.645Z,30.25
2023-05-05T03:49:21.636Z,30.21
2023-05-05T03:50:21.660Z,30.15
2023-05-05T03:51:21.648Z,30.11
2023-05-05T03:52:21.666Z,30.20
2023-05-05T03:53:21.646Z,30.05
2023-05-05T03:54:21.606Z,30.13
2023-05-05T03:55:21.622Z,30.23
2023-05-05T03:56:21.638Z,30.27
2023-05-05T03:57:21.587Z,30.28
2023-05-05T03:58:21.595Z,30.40
2023-05-05T03:59:21.612Z,30.31
2023-05-05T04:00:21.604Z,30.36
2023-05-05T04:01:21.631Z,30.39
2023-05-05T04:02:21.615Z,30.35
2023-05-05T04:03:21.745Z,30.40
2023-05-05T04:04:21.586Z,30.36
2023-05-05T04:05:21.608Z,30.37
2023-05-05T04:06:21.590Z,30.35
2023-05-05T04:07:21.598Z,30.31
2023-05-05T04:08:21.563Z,30.30
2023-05-05T04:09:21.584Z,30.30
2023-05-05T04:10:21.588Z,30.35
2023-05-05T04:11:21.619Z,30.37
2023-05-05T04:12:21.589Z,30.35
2023-05-05T04:13:21.570Z,30.28
2023-05-05T04:14:21.586Z,30.34
2023-05-05T04:15:21.573Z,30.40
2023-05-05T04:16:21.690Z,30.43
2023-05-05T04:17:21.613Z,30.35
2023-05-05T04:18:21.623Z,30.38
2023-05-05T04:19:21.612Z,30.40
2023-05-05T04:20:21.626Z,30.41
2023-05-05T04:21:21.628Z,30.38
2023-05-05T04:22:21.638Z,30.41
2023-05-05T04:23:21.638Z,30.39
2023-05-05T04:24:21.652Z,30.41
2023-05-05T04:25:21.650Z,30.44
2023-05-05T04:26:21.629Z,30.41
2023-05-05T04:27:21.620Z,30.45
2023-05-05T04:28:22.264Z,30.45
2023-05-05T04:29:21.641Z,30.45
2023-05-05T04:30:21.639Z,30.41
2023-05-05T04:31:21.740Z,30.45
2023-05-05T04:32:21.647Z,30.44
2023-05-05T04:33:21.641Z,30.44
2023-05-05T04:34:21.606Z,30.42
2023-05-05T04:35:21.619Z,30.39
2023-05-05T04:36:21.616Z,30.34
2023-05-05T04:37:21.686Z,30.30
2023-05-05T04:38:21.672Z,30.40
2023-05-05T04:39:21.679Z,30.40
2023-05-05T04:40:21.687Z,30.42
2023-05-05T04:41:21.710Z,30.41
2023-05-05T04:42:21.742Z,30.38
2023-05-05T04:43:21.740Z,30.42
2023-05-05T04:44:21.723Z,30.41
2023-05-05T04:45:21.752Z,30.44
2023-05-05T04:46:21.806Z,30.45
2023-05-05T04:47:21.766Z,30.44
2023-05-05T04:48:21.753Z,30.45
2023-05-05T04:49:21.728Z,30.51
2023-05-05T04:50:21.756Z,30.48
2023-05-05T04:51:21.753Z,30.49
2023-05-05T04:52:21.755Z,30.55
2023-05-05T04:53:21.749Z,30.58
2023-05-05T04:54:21.740Z,30.54
2023-05-05T04:55:21.720Z,30.54
2023-05-05T04:56:21.717Z,30.61
2023-05-05T04:57:21.737Z,30.58
2023-05-05T04:58:21.725Z,30.59
2023-05-05T04:59:21.717Z,30.59
2023-05-05T05:00:21.700Z,30.64
2023-05-05T05:01:29.829Z,30.64
2023-05-05T05:02:21.980Z,30.68
2023-05-05T05:03:21.817Z,30.68
2023-05-05T05:04:21.713Z,30.80
2023-05-05T05:05:21.727Z,30.47
2023-05-05T05:06:21.735Z,30.35
2023-05-05T05:07:21.698Z,30.50
2023-05-05T05:08:21.691Z,30.72
2023-05-05T05:09:21.645Z,31.01
2023-05-05T05:10:21.648Z,31.26
2023-05-05T05:11:21.710Z,31.40
2023-05-05T05:12:21.778Z,31.69
2023-05-05T05:13:21.848Z,31.97
2023-05-05T05:14:21.855Z,32.11
2023-05-05T05:15:21.841Z,32.23
2023-05-05T05:16:21.832Z,32.48
2023-05-05T05:17:21.808Z,32.63
2023-05-05T05:18:21.813Z,32.77
2023-05-05T05:19:21.822Z,32.86
2023-05-05T05:20:21.837Z,32.89
2023-05-05T05:21:21.843Z,33.08
2023-05-05T05:22:21.893Z,33.05
2023-05-05T05:23:21.856Z,33.10
2023-05-05T05:24:21.858Z,33.08
2023-05-05T05:25:21.854Z,33.35
2023-05-05T05:26:21.862Z,33.54
2023-05-05T05:27:21.937Z,33.67
2023-05-05T05:28:21.925Z,33.94
2023-05-05T05:29:22.007Z,34.14
2023-05-05T05:30:21.980Z,33.86
2023-05-05T05:31:22.103Z,33.68
2023-05-05T05:32:22.259Z,33.72
2023-05-05T05:33:22.118Z,33.85
2023-05-05T05:34:22.140Z,34.27
2023-05-05T05:35:22.238Z,34.23
2023-05-05T05:36:22.322Z,34.64
2023-05-05T05:37:22.878Z,34.18
2023-05-05T05:38:22.436Z,34.36
2023-05-05T05:39:22.370Z,34.13
2023-05-05T05:40:22.391Z,34.38
2023-05-05T05:41:22.449Z,34.73
2023-05-05T05:42:22.499Z,34.65
2023-05-05T05:43:22.484Z,34.72
2023-05-05T05:44:22.548Z,34.98
2023-05-05T05:45:22.632Z,35.14
2023-05-05T05:47:41.785Z,34.35
2023-05-05T05:48:41.584Z,34.56
2023-05-05T05:49:41.610Z,34.24
2023-05-05T05:50:41.578Z,34.45
2023-05-05T05:51:41.562Z,34.60
2023-05-05T05:52:41.810Z,34.30
2023-05-05T05:53:41.604Z,34.25
2023-05-05T05:54:41.529Z,34.64
2023-05-05T05:55:41.515Z,35.01
2023-05-05T05:56:41.526Z,35.00
2023-05-05T05:57:42.457Z,34.97
2023-05-05T05:58:41.486Z,34.77
2023-05-05T05:59:41.548Z,34.78
2023-05-05T06:00:41.483Z,34.64
2023-05-05T06:01:41.504Z,34.35
2023-05-05T06:02:41.524Z,34.42
2023-05-05T06:03:41.511Z,34.44
2023-05-05T06:04:41.546Z,34.41
2023-05-05T06:05:41.493Z,34.57
2023-05-05T06:06:41.440Z,34.58
2023-05-05T06:07:41.819Z,34.57
2023-05-05T06:08:41.410Z,34.49
2023-05-05T06:09:41.394Z,34.65
2023-05-05T06:10:41.407Z,34.56
2023-05-05T06:11:41.421Z,34.48
2023-05-05T06:12:41.771Z,34.49
2023-05-05T06:13:41.385Z,34.56
2023-05-05T06:14:41.364Z,34.56
2023-05-05T06:15:41.412Z,34.52
2023-05-05T06:16:41.341Z,34.52
2023-05-05T06:17:41.404Z,34.50
2023-05-05T06:18:41.373Z,34.60
2023-05-05T06:19:41.323Z,34.43
2023-05-05T06:20:41.383Z,34.68
2023-05-05T06:21:41.327Z,34.59
2023-05-05T06:22:41.333Z,34.57
2023-05-05T06:23:41.338Z,34.71
2023-05-05T06:24:41.342Z,34.34
2023-05-05T06:25:41.356Z,34.19
2023-05-05T06:26:41.385Z,34.17
2023-05-05T06:27:41.456Z,34.51
2023-05-05T06:28:41.512Z,34.55
2023-05-05T06:29:41.552Z,34.39
2023-05-05T06:30:41.574Z,34.51
2023-05-05T06:31:41.644Z,34.42
2023-05-05T06:32:41.701Z,34.18
2023-05-05T06:33:41.720Z,34.18
2023-05-05T06:34:41.774Z,34.30
2023-05-05T06:35:41.819Z,34.34
2023-05-05T06:36:41.937Z,34.22
2023-05-05T06:37:41.903Z,34.32
2023-05-05T06:38:42.014Z,34.56
2023-05-05T06:39:42.027Z,34.40
2023-05-05T06:40:41.995Z,34.76
2023-05-05T06:41:42.050Z,34.31
2023-05-05T06:42:42.053Z,33.88
2023-05-05T06:43:42.056Z,33.80
2023-05-05T06:44:42.058Z,33.69
2023-05-05T06:45:43.657Z,33.79
2023-05-05T06:46:42.165Z,34.13
2023-05-05T06:47:42.410Z,34.44
2023-05-05T06:48:42.212Z,34.32
2023-05-05T06:49:42.299Z,34.23
2023-05-05T06:50:42.303Z,33.82
2023-05-05T06:51:42.930Z,33.72
2023-05-05T06:52:42.836Z,33.29
2023-05-05T06:53:42.475Z,33.52
2023-05-05T06:54:42.507Z,33.59
2023-05-05T06:55:42.574Z,33.70
2023-05-05T06:56:42.611Z,33.78
2023-05-05T06:57:42.723Z,33.86
2023-05-05T06:58:42.710Z,33.60
2023-05-05T06:59:42.713Z,33.24
2023-05-05T07:00:42.808Z,33.37
2023-05-05T07:01:42.853Z,32.94
2023-05-05T07:02:43.359Z,32.80
2023-05-05T07:03:43.047Z,32.89
2023-05-05T07:04:43.022Z,33.34
2023-05-05T07:05:43.072Z,33.07
2023-05-05T07:06:43.112Z,33.02
2023-05-05T07:07:43.223Z,33.21
2023-05-05T07:08:43.218Z,33.98
2023-05-05T07:09:43.278Z,33.65
2023-05-05T07:10:43.323Z,33.51
2023-05-05T07:11:43.296Z,33.46
2023-05-05T07:12:43.518Z,33.28
2023-05-05T07:13:43.356Z,32.86
2023-05-05T07:14:43.356Z,33.49
2023-05-05T07:15:43.386Z,32.51
2023-05-05T07:16:43.497Z,32.41
2023-05-05T07:17:43.657Z,32.45
2023-05-05T07:18:43.430Z,32.34
2023-05-05T07:19:43.592Z,32.19
2023-05-05T07:20:43.400Z,32.39
2023-05-05T07:21:43.405Z,32.51
2023-05-05T07:22:43.432Z,32.24
2023-05-05T07:23:43.553Z,32.10
2023-05-05T07:24:43.429Z,32.67
2023-05-05T07:25:43.531Z,32.19
2023-05-05T07:26:43.531Z,32.48
2023-05-05T07:27:43.805Z,32.55
2023-05-05T07:28:43.578Z,32.29
2023-05-05T07:29:43.636Z,32.33
2023-05-05T07:30:43.588Z,32.22
2023-05-05T07:31:43.652Z,32.20
2023-05-05T07:32:43.747Z,32.04
2023-05-05T07:33:43.768Z,32.08
2023-05-05T07:34:43.791Z,32.02
2023-05-05T07:35:43.882Z,32.07
2023-05-05T07:36:43.863Z,32.13
2023-05-05T07:37:43.995Z,31.92
2023-05-05T07:38:43.952Z,31.90
2023-05-05T07:39:44.081Z,32.23
2023-05-05T07:40:44.073Z,31.79
2023-05-05T07:41:44.031Z,31.70
2023-05-05T07:42:44.303Z,31.55
2023-05-05T07:43:44.686Z,31.47
2023-05-05T07:44:44.173Z,31.21
2023-05-05T07:45:44.175Z,31.49
2023-05-05T07:46:44.191Z,31.41
2023-05-05T07:47:44.216Z,31.31
2023-05-05T07:48:44.226Z,30.67
2023-05-05T07:49:44.249Z,30.22
2023-05-05T07:50:44.241Z,28.91
2023-05-05T07:51:44.331Z,29.82
2023-05-05T07:52:48.277Z,29.96
2023-05-05T07:53:45.327Z,30.08
2023-05-05T07:54:44.351Z,30.05
2023-05-05T07:55:44.456Z,30.45
2023-05-05T07:56:44.441Z,30.66
2023-05-05T07:57:44.529Z,28.45
2023-05-05T07:58:44.569Z,28.94
2023-05-05T07:59:44.633Z,29.69
2023-05-05T08:00:44.697Z,30.85
2023-05-05T08:01:44.755Z,30.59
2023-05-05T08:02:44.892Z,28.90
2023-05-05T08:03:44.937Z,28.79
2023-05-05T08:04:44.949Z,28.69
2023-05-05T08:05:44.983Z,28.90
2023-05-05T08:06:45.021Z,28.80
2023-05-05T08:07:45.042Z,29.02
2023-05-05T08:08:45.058Z,28.94
2023-05-05T08:09:45.110Z,29.25
2023-05-05T08:10:45.186Z,29.54
2023-05-05T08:11:45.340Z,29.93
2023-05-05T08:12:45.382Z,29.82
2023-05-05T08:13:45.350Z,29.60
2023-05-05T08:14:45.409Z,29.33
2023-05-05T08:15:45.567Z,29.53
2023-05-05T08:16:45.594Z,29.16
2023-05-05T08:17:45.663Z,28.88
2023-05-05T08:18:45.672Z,29.29
2023-05-05T08:19:45.702Z,28.65
2023-05-05T08:20:45.792Z,28.25
2023-05-05T08:21:47.711Z,27.95
2023-05-05T08:22:45.890Z,27.86
2023-05-05T08:23:45.934Z,27.78
2023-05-05T08:24:45.926Z,27.46
2023-05-05T08:25:45.982Z,27.58
2023-05-05T08:26:46.001Z,27.84
2023-05-05T08:27:46.089Z,27.89
2023-05-05T08:28:46.037Z,28.01
2023-05-05T08:29:46.030Z,28.10
2023-05-05T08:30:46.078Z,28.06
2023-05-05T08:31:46.097Z,28.34
2023-05-05T08:32:46.365Z,28.37
2023-05-05T08:33:46.108Z,27.87
2023-05-05T08:34:46.112Z,27.17
2023-05-05T08:35:46.208Z,27.65
2023-05-05T08:36:46.197Z,27.66
2023-05-05T08:37:46.195Z,27.58
2023-05-05T08:38:46.182Z,27.76
2023-05-05T08:39:46.151Z,27.72
2023-05-05T08:40:46.255Z,30.93
2023-05-05T08:41:46.253Z,30.94
2023-05-05T08:42:46.336Z,30.81
2023-05-05T08:43:46.379Z,30.93
2023-05-05T08:44:46.342Z,31.01
2023-05-05T08:45:46.348Z,30.79
2023-05-05T08:46:46.396Z,30.62
2023-05-05T08:47:46.521Z,30.69
2023-05-05T08:48:46.454Z,30.98
2023-05-05T08:49:46.475Z,30.73
2023-05-05T08:50:46.480Z,30.47
2023-05-05T08:51:46.503Z,30.29
2023-05-05T08:53:46.861Z,29.91
2023-05-05T08:54:46.546Z,29.99
2023-05-05T08:55:46.645Z,29.62
2023-05-05T08:56:46.625Z,29.44
2023-05-05T08:57:46.629Z,29.50
2023-05-05T08:58:47.300Z,29.95
2023-05-05T08:59:48.049Z,30.09
2023-05-05T09:00:46.800Z,29.44
2023-05-05T09:01:46.809Z,30.16
2023-05-05T09:02:46.929Z,30.06
2023-05-05T09:03:47.350Z,30.22
2023-05-05T09:04:46.832Z,29.99
2023-05-05T09:05:46.937Z,30.33
2023-05-05T09:06:46.943Z,30.67
2023-05-05T09:07:47.061Z,30.46
2023-05-05T09:08:47.375Z,29.52
2023-05-05T09:09:46.969Z,29.45
2023-05-05T09:10:47.015Z,29.47
2023-05-05T09:11:47.036Z,29.57
2023-05-05T09:12:47.131Z,29.41
2023-05-05T09:13:47.309Z,28.88
2023-05-05T09:14:47.150Z,28.32
2023-05-05T09:15:47.219Z,28.06
2023-05-05T09:16:47.232Z,28.37
2023-05-05T09:17:47.325Z,29.11
2023-05-05T09:18:47.355Z,29.02
2023-05-05T09:19:47.237Z,28.25
2023-05-05T09:20:47.282Z,28.28
2023-05-05T09:21:47.334Z,28.70
2023-05-05T09:22:47.429Z,28.81
2023-05-05T09:23:47.836Z,28.43
2023-05-05T09:24:47.437Z,28.78
2023-05-05T09:25:47.454Z,29.14
2023-05-05T09:26:47.434Z,28.83
2023-05-05T09:27:47.446Z,28.82
2023-05-05T09:28:47.889Z,29.31
2023-05-05T09:29:47.487Z,29.61
2023-05-05T09:30:47.528Z,29.45
2023-05-05T09:31:47.621Z,28.97
2023-05-05T09:32:47.555Z,29.27
2023-05-05T09:33:47.856Z,28.99
2023-05-05T09:34:47.569Z,29.03
2023-05-05T09:35:48.485Z,29.19
2023-05-05T09:36:47.520Z,28.91
2023-05-05T09:37:47.481Z,28.61
2023-05-05T09:38:47.481Z,28.94
2023-05-05T09:39:47.560Z,29.27
2023-05-05T09:40:47.495Z,29.22
2023-05-05T09:41:47.447Z,29.53
2023-05-05T09:42:47.498Z,29.58
2023-05-05T09:43:47.862Z,29.46
2023-05-05T09:44:47.469Z,29.42
2023-05-05T09:45:47.454Z,29.79
2023-05-05T09:46:47.526Z,29.85
2023-05-05T09:47:48.078Z,30.07
2023-05-05T09:48:47.856Z,29.26
2023-05-05T09:49:47.675Z,29.07
2023-05-05T09:50:47.731Z,30.83
2023-05-05T09:51:47.774Z,29.15
2023-05-05T09:52:48.164Z,28.73
2023-05-05T09:53:47.904Z,28.90
2023-05-05T09:54:47.922Z,28.74
2023-05-05T09:55:47.959Z,28.58
2023-05-05T09:56:47.908Z,29.41
2023-05-05T09:57:47.925Z,29.98
2023-05-05T09:58:48.459Z,30.07
2023-05-05T09:59:47.943Z,30.05
2023-05-05T10:00:48.019Z,29.73
2023-05-05T10:01:48.020Z,29.74
2023-05-05T10:02:48.030Z,29.25
2023-05-05T10:03:48.046Z,29.17
2023-05-05T10:04:48.006Z,29.30
2023-05-05T10:05:48.013Z,29.13
2023-05-05T10:06:48.012Z,29.29
2023-05-05T10:07:48.079Z,29.29
2023-05-05T10:08:48.062Z,29.43
2023-05-05T10:09:48.100Z,29.45
2023-05-05T10:10:48.235Z,29.43
2023-05-05T10:11:48.835Z,29.94
2023-05-05T10:12:48.276Z,30.18
2023-05-05T10:13:48.344Z,29.24
2023-05-05T10:14:48.339Z,28.56
2023-05-05T10:15:48.386Z,28.61
2023-05-05T10:16:48.416Z,28.30
2023-05-05T10:18:02.758Z,28.62
2023-05-05T10:18:49.462Z,28.93
2023-05-05T10:19:48.610Z,28.99
2023-05-05T10:20:48.418Z,28.16
2023-05-05T10:21:48.430Z,28.01
2023-05-05T10:22:48.404Z,28.08
2023-05-05T10:23:48.364Z,28.20
2023-05-05T10:24:48.397Z,28.81
2023-05-05T10:25:48.390Z,29.76
2023-05-05T10:26:48.398Z,29.43
2023-05-05T10:27:48.452Z,29.62
2023-05-05T10:28:48.882Z,29.46
2023-05-05T10:29:48.475Z,29.53
2023-05-05T10:30:48.518Z,29.25
2023-05-05T10:31:48.606Z,29.14
2023-05-05T10:32:59.971Z,29.41
2023-05-05T10:33:49.658Z,29.22
2023-05-05T10:34:48.624Z,29.18
2023-05-05T10:35:48.663Z,28.98
2023-05-05T10:36:48.613Z,29.01
2023-05-05T10:37:48.626Z,29.39
2023-05-05T10:38:48.866Z,29.64
2023-05-05T10:39:48.591Z,28.94
2023-05-05T10:40:48.591Z,28.89
2023-05-05T10:41:48.637Z,28.53
2023-05-05T10:42:48.542Z,29.42
2023-05-05T10:43:48.865Z,28.64
2023-05-05T10:44:48.605Z,29.97
2023-05-05T10:45:48.638Z,29.05
2023-05-05T10:46:48.530Z,29.58
2023-05-05T10:47:48.652Z,28.94
2023-05-05T10:48:48.938Z,29.17
2023-05-05T10:49:48.533Z,28.78
2023-05-05T10:50:48.489Z,29.39
2023-05-05T10:51:48.530Z,29.95
2023-05-05T10:52:48.495Z,30.07
2023-05-05T10:53:48.581Z,30.04
2023-05-05T10:54:48.560Z,29.50
2023-05-05T10:55:48.634Z,29.24
2023-05-05T10:56:48.579Z,29.43
2023-05-05T10:57:48.643Z,29.48
2023-05-05T10:58:59.717Z,29.21
2023-05-05T10:59:49.643Z,28.61
2023-05-05T11:00:49.191Z,28.81
2023-05-05T11:01:48.628Z,28.74
2023-05-05T11:02:48.647Z,28.70
2023-05-05T11:03:48.700Z,28.99
2023-05-05T11:04:49.444Z,29.20
2023-05-05T11:05:48.582Z,29.09
2023-05-05T11:06:48.561Z,28.96
2023-05-05T11:07:48.691Z,28.92
2023-05-05T11:08:48.551Z,28.95
2023-05-05T11:09:48.589Z,29.01
2023-05-05T11:10:48.634Z,29.06
2023-05-05T11:11:48.558Z,29.01
2023-05-05T11:12:48.569Z,29.04
2023-05-05T11:13:48.524Z,29.07
2023-05-05T11:14:48.901Z,29.27
2023-05-05T11:15:48.550Z,29.21
2023-05-05T11:16:48.553Z,29.10
2023-05-05T11:17:48.613Z,29.11
2023-05-05T11:18:48.476Z,29.11
2023-05-05T11:19:48.550Z,29.41
2023-05-05T11:20:48.477Z,29.15
2023-05-05T11:21:48.456Z,29.17
2023-05-05T11:22:48.440Z,29.12
2023-05-05T11:23:48.497Z,29.14
2023-05-05T11:24:48.494Z,29.08
2023-05-05T11:25:48.449Z,29.10
2023-05-05T11:26:48.433Z,29.13
2023-05-05T11:27:48.468Z,29.10
2023-05-05T11:28:48.465Z,29.15
2023-05-05T11:29:50.294Z,29.22
2023-05-05T11:30:48.487Z,29.16
2023-05-05T11:31:48.448Z,29.26
2023-05-05T11:32:48.534Z,29.69
2023-05-05T11:33:48.463Z,29.72
2023-05-05T11:34:48.860Z,29.53
2023-05-05T11:35:48.412Z,29.06
2023-05-05T11:36:48.434Z,29.27
2023-05-05T11:37:48.430Z,28.91
2023-05-05T11:38:48.385Z,29.09
2023-05-05T11:39:48.968Z,29.17
2023-05-05T11:40:48.411Z,29.07
2023-05-05T11:41:48.401Z,28.81
2023-05-05T11:42:48.361Z,28.60
2023-05-05T11:43:48.382Z,28.72
2023-05-05T11:44:48.377Z,28.83
2023-05-05T11:45:48.394Z,28.74
2023-05-05T11:46:48.327Z,28.73
2023-05-05T11:47:48.356Z,28.63
2023-05-05T11:48:48.309Z,28.58
2023-05-05T11:49:48.305Z,28.56
2023-05-05T11:50:48.325Z,28.62
2023-05-05T11:51:48.328Z,28.63
2023-05-05T11:52:48.268Z,28.58
2023-05-05T11:53:48.270Z,28.62
2023-05-05T11:54:48.299Z,28.75
2023-05-05T11:55:48.358Z,28.83
2023-05-05T11:56:48.268Z,28.79
2023-05-05T11:57:48.240Z,28.81
2023-05-05T11:58:48.209Z,28.79
2023-05-05T11:59:49.554Z,28.88
2023-05-05T12:00:48.224Z,28.71
2023-05-05T12:01:48.208Z,28.81
2023-05-05T12:02:48.277Z,28.95
2023-05-05T12:03:48.358Z,28.92
2023-05-05T12:04:48.211Z,28.89
2023-05-05T12:05:48.214Z,28.91
2023-05-05T12:06:48.205Z,29.04
2023-05-05T12:07:48.156Z,28.95
2023-05-05T12:08:48.158Z,28.98
2023-05-05T12:09:48.144Z,28.93
2023-05-05T12:10:48.209Z,28.91
2023-05-05T12:11:48.117Z,28.85
2023-05-05T12:12:48.550Z,28.94
2023-05-05T12:13:48.145Z,29.04
2023-05-05T12:14:48.169Z,29.06
2023-05-05T12:15:48.128Z,29.05
2023-05-05T12:16:48.177Z,29.06
2023-05-05T12:17:48.103Z,29.13
2023-05-05T12:18:48.113Z,29.05
2023-05-05T12:19:48.117Z,29.05
2023-05-05T12:20:48.084Z,29.02
2023-05-05T12:21:48.119Z,29.04
2023-05-05T12:22:48.074Z,29.11
2023-05-05T12:23:48.069Z,29.18
2023-05-05T12:24:48.087Z,29.11
2023-05-05T12:25:48.050Z,29.11
2023-05-05T12:26:48.060Z,29.13
2023-05-05T12:27:48.105Z,29.11
2023-05-05T12:28:48.037Z,29.11
2023-05-05T12:29:48.044Z,29.02
2023-05-05T12:30:48.030Z,29.11
2023-05-05T12:31:48.097Z,29.11
2023-05-05T12:32:48.029Z,28.93
2023-05-05T12:33:47.993Z,29.23
2023-05-05T12:34:48.013Z,29.44
2023-05-05T12:35:47.972Z,29.59
2023-05-05T12:36:47.952Z,29.53
2023-05-05T12:37:47.973Z,29.79
2023-05-05T12:38:48.002Z,29.89
2023-05-05T12:39:47.978Z,29.94
2023-05-05T12:40:47.961Z,30.12
2023-05-05T12:41:47.919Z,30.05
2023-05-05T12:42:47.961Z,30.45
2023-05-05T12:43:47.971Z,30.58
2023-05-05T12:44:47.910Z,29.81
2023-05-05T12:45:48.019Z,29.58
2023-05-05T12:46:48.044Z,29.37
2023-05-05T12:47:48.115Z,29.25
2023-05-05T12:48:48.462Z,29.23
2023-05-05T12:49:48.215Z,29.44
2023-05-05T12:50:48.254Z,29.86
2023-05-05T12:51:48.325Z,30.66
2023-05-05T12:52:48.391Z,31.25
2023-05-05T12:53:48.480Z,31.90
2023-05-05T12:54:48.482Z,32.44